Date,TemperatureHighF,TemperatureAvgF,TemperatureLowF,DewpointHighF,DewpointAvgF,DewpointLowF,HumidityHigh,HumidityAvg,HumidityLow,PressureMaxIn,PressureMinIn,WindSpeedMaxMPH,WindSpeedAvgMPH,GustSpeedMaxMPH,PrecipitationSumIn
2013-1-1,32,24,13,25,16,6,75,71,64,29.99,29.80,17,4,17,0.29
2013-1-2,31,19,10,20,11,0,75,71,60,30.18,29.94,18,3,18,0.00
2013-1-3,31,22,10,22,14,2,78,72,64,30.17,29.96,14,3,14,0.00
2013-1-4,37,30,27,23,21,16,78,67,55,29.98,29.86,24,5,24,0.00
2013-1-5,36,30,24,27,22,15,74,70,66,30.26,29.97,20,3,20,1.24
2013-1-6,39,34,29,29,26,20,80,72,63,30.09,29.89,17,5,17,0.02
2013-1-7,34,28,23,28,21,16,81,75,66,30.36,30.02,20,4,20,0.00
2013-1-8,42,31,25,24,20,-49,73,62,46,30.31,30.18,16,3,16,0.00
2013-1-9,44,37,28,32,25,18,71,62,56,30.30,29.96,22,6,22,0.02
2013-1-10,41,34,27,27,24,20,76,65,57,30.54,30.25,19,4,19,0.00
2013-1-11,41,37,31,34,27,22,81,69,56,30.46,29.96,29,8,29,0.10
2013-1-12,51,44,39,43,39,34,85,81,73,30.06,30.01,19,5,19,0.33
2013-1-13,58,51,44,50,45,39,84,79,73,30.05,29.83,25,6,25,0.00
2013-1-14,54,39,29,48,31,19,83,72,61,30.33,29.78,16,4,16,0.02
2013-1-15,36,30,27,24,20,18,72,67,56,30.34,30.17,6,1,6,0.00
2013-1-16,35,31,29,28,24,20,79,74,68,30.17,29.78,18,4,18,0.00
2013-1-17,33,27,18,26,17,10,77,68,56,30.14,29.85,16,4,16,0.00
2013-1-18,28,18,3,15,8,-3,76,64,50,30.35,30.08,26,4,26,0.00
2013-1-19,47,39,27,25,19,12,52,44,38,30.10,29.67,24,7,24,0.00
2013-1-20,44,32,18,29,16,7,74,53,41,30.02,29.47,32,6,32,0.02
2013-1-21,26,19,15,14,9,5,71,64,54,30.01,29.81,13,2,13,0.00
2013-1-22,18,11,6,7,-2,-6,69,56,46,30.10,29.81,12,5,30,0.00
2013-1-23,14,6,0,1,-4,-9,70,63,53,30.16,30.07,12,3,12,0.00
2013-1-24,15,7,-2,3,-2,-9,74,67,57,30.41,30.06,14,3,14,0.00
2013-1-25,24,12,3,9,4,-4,74,68,50,30.40,30.06,9,2,9,0.00
2013-1-26,25,10,0,11,1,-6,76,68,52,30.36,30.07,8,1,8,0.00
2013-1-27,26,18,5,14,9,-2,76,70,57,30.54,30.36,9,1,9,0.00
2013-1-28,39,31,20,34,23,12,84,73,58,30.40,29.92,14,5,19,0.47
2013-1-29,49,42,34,44,37,30,85,83,74,30.09,29.88,19,4,19,0.33
2013-1-30,60,53,48,52,47,43,85,80,73,29.88,29.17,32,10,33,0.38
2013-1-31,52,33,20,48,24,13,86,72,55,29.70,29.06,32,7,32,0.43
2013-2-1,29,20,16,17,10,5,76,67,54,30.16,29.69,20,5,20,0.00
2013-2-2,26,18,12,12,8,4,75,65,51,30.17,29.98,20,4,20,0.00
2013-2-3,32,19,9,18,11,3,79,70,49,29.98,29.77,11,2,11,0.00
2013-2-4,29,20,16,12,9,7,74,63,44,29.93,29.83,17,4,17,0.00
2013-2-5,31,21,12,17,11,6,75,66,52,29.97,29.85,9,2,9,0.00
2013-2-6,33,23,10,21,12,0,79,64,44,30.36,29.88,17,3,17,0.00
2013-2-7,35,24,9,15,11,2,73,58,43,30.45,30.15,24,4,24,0.00
2013-2-8,36,30,26,28,22,13,80,72,56,30.15,29.78,26,5,26,0.00
2013-2-9,26,18,13,21,11,7,80,73,62,30.39,29.92,13,2,13,0.00
2013-2-10,35,22,7,20,10,1,79,61,40,30.43,30.05,24,5,24,0.00
2013-2-11,41,33,28,31,23,10,80,67,46,30.05,29.63,29,7,29,0.00
2013-2-12,36,31,29,24,22,19,77,68,57,29.97,29.74,21,4,21,0.00
2013-2-13,39,30,19,23,19,12,74,64,49,29.93,29.73,8,2,8,0.06
2013-2-14,42,31,16,28,21,9,82,67,48,29.95,29.79,17,3,17,0.10
2013-2-15,40,34,25,29,23,15,82,64,52,30.04,29.82,19,4,19,0.04
2013-2-16,30,22,11,17,11,2,73,61,44,30.04,29.89,10,2,10,0.00
2013-2-17,21,13,9,8,4,0,75,65,53,30.09,29.86,17,5,17,0.00
2013-2-18,32,20,10,15,8,3,76,62,46,30.26,30.01,17,4,17,0.02
2013-2-19,39,32,25,30,21,10,80,64,49,30.02,29.62,23,6,23,0.07
2013-2-20,28,22,18,15,12,10,76,64,51,30.01,29.77,18,4,18,0.00
2013-2-21,22,17,14,12,9,6,77,70,55,30.40,29.97,19,4,19,0.00
2013-2-22,40,27,12,23,17,6,79,67,48,30.39,30.08,28,4,28,0.04
2013-2-23,40,33,28,32,27,19,82,76,68,30.08,29.88,23,4,23,0.04
2013-2-24,35,29,26,25,22,20,81,73,61,30.03,29.86,11,2,11,0.02
2013-2-25,39,30,21,28,22,14,80,72,57,30.25,30.03,9,2,9,0.04
2013-2-26,44,32,21,26,21,15,79,67,47,30.26,29.89,21,4,21,0.10
2013-2-27,43,35,32,33,28,26,83,77,64,29.91,29.58,21,3,21,0.69
2013-2-28,43,34,30,33,28,25,84,77,62,29.69,29.58,9,1,9,0.13
2013-3-1,33,28,24,26,23,18,83,79,72,29.90,29.69,11,1,11,0.00
2013-3-2,28,23,20,19,16,14,80,76,67,29.90,29.84,12,4,12,0.00
2013-3-3,30,22,18,17,14,11,79,71,55,29.87,29.81,12,3,12,0.00
2013-3-4,29,23,20,18,15,14,79,71,60,30.01,29.85,14,4,14,0.00
2013-3-5,41,26,19,23,17,12,78,69,49,30.09,29.99,9,1,9,0.06
2013-3-6,41,32,19,27,22,13,79,67,55,30.13,29.98,12,3,12,0.04
2013-3-7,42,32,25,22,19,15,75,57,43,30.23,30.12,12,3,12,0.00
2013-3-8,37,29,20,23,19,13,79,67,52,30.37,30.20,16,5,16,0.10
2013-3-9,46,32,19,28,22,12,81,67,46,30.40,30.26,10,1,10,0.02
2013-3-10,56,44,33,21,20,17,59,39,23,30.27,30.07,24,7,24,0.00
2013-3-11,51,46,42,37,26,20,66,45,40,30.09,29.79,35,8,35,0.00
2013-3-12,49,40,32,42,33,25,82,76,65,29.93,29.76,27,4,27,0.35
2013-3-13,41,32,23,28,22,13,76,67,52,29.93,29.83,17,2,17,0.02
2013-3-14,31,23,16,16,9,3,73,57,35,30.01,29.90,24,6,24,0.00
2013-3-15,35,28,19,26,17,9,74,65,53,30.01,29.72,17,4,17,0.00
2013-3-16,33,24,13,16,13,6,72,62,47,29.97,29.83,14,3,14,0.00
2013-3-17,32,22,12,17,10,4,77,62,45,30.33,29.96,16,3,16,0.02
2013-3-18,37,24,13,21,11,4,80,60,32,30.34,29.82,30,5,30,0.00
2013-3-19,45,31,23,33,23,14,80,71,51,29.84,29.69,35,5,42,0.24
2013-3-20,38,27,19,22,15,10,74,63,48,29.84,29.80,17,3,17,0.00
2013-3-21,36,24,14,16,12,8,75,60,40,29.83,29.72,12,2,12,0.02
2013-3-22,34,27,22,23,19,16,77,72,58,29.89,29.71,16,4,16,0.02
2013-3-23,41,31,26,24,20,16,79,64,47,29.98,29.87,19,5,19,0.04
2013-3-24,43,32,23,24,18,15,77,59,40,29.98,29.74,10,2,10,0.00
2013-3-25,44,34,26,24,20,16,69,58,40,29.74,29.59,12,2,12,0.00
2013-3-26,46,34,28,32,23,16,77,64,44,29.93,29.70,15,2,15,0.02
2013-3-27,48,34,28,30,25,20,80,69,46,30.04,29.91,14,1,14,0.00
2013-3-28,46,35,30,34,27,24,83,72,57,30.20,30.02,13,1,13,0.11
2013-3-29,46,36,28,32,26,21,78,68,49,30.20,30.13,13,2,13,0.02
2013-3-30,53,37,27,29,22,18,77,58,31,30.20,30.09,8,1,8,0.00
2013-3-31,54,41,30,35,27,18,82,59,35,30.10,29.69,28,6,28,0.30
2013-4-1,40,34,23,35,26,13,83,71,49,29.94,29.62,20,4,20,0.15
2013-4-2,34,26,21,20,16,13,73,66,53,30.08,29.92,19,5,19,0.00
2013-4-3,36,28,21,20,15,9,76,60,40,30.35,30.07,13,4,15,0.00
2013-4-4,54,36,20,23,16,11,69,46,24,30.35,29.95,17,3,17,0.00
2013-4-5,46,36,26,24,16,10,64,45,35,30.10,29.89,20,5,20,0.00
2013-4-6,49,33,21,17,12,7,69,45,21,30.33,30.10,14,3,14,0.00
2013-4-7,66,49,39,34,24,11,62,39,27,30.13,29.81,37,8,37,0.00
2013-4-8,67,49,37,42,32,26,67,52,30,30.15,29.86,20,3,21,0.08
2013-4-9,63,52,43,44,39,36,80,63,45,30.13,29.83,19,4,19,0.55
2013-4-10,54,45,40,48,40,35,85,83,77,30.07,29.84,17,2,17,1.32
2013-4-11,40,35,32,35,30,26,85,82,72,30.14,29.95,10,2,10,0.08
2013-4-12,47,39,33,40,34,29,84,82,75,30.00,29.63,35,6,35,0.31
2013-4-13,52,40,34,36,31,28,82,72,51,29.97,29.81,14,3,14,0.02
2013-4-14,50,38,30,30,26,21,81,64,40,30.22,29.95,20,2,20,0.04
2013-4-15,71,49,30,44,32,22,72,54,34,30.23,30.12,23,6,23,0.00
2013-4-16,62,52,42,52,43,32,82,71,60,30.24,30.00,38,8,38,0.33
2013-4-17,59,44,31,35,30,25,81,60,34,30.35,30.23,13,2,13,0.00
2013-4-18,69,56,38,48,39,28,74,55,40,30.27,29.86,39,10,39,0.00
2013-4-19,72,58,39,55,47,31,80,68,50,29.86,29.48,36,8,36,0.55
2013-4-20,46,38,29,31,24,16,74,58,38,30.38,29.78,21,5,24,0.02
2013-4-21,50,34,26,22,18,14,70,53,30,30.65,30.38,12,3,12,0.00
2013-4-22,64,44,27,28,21,17,69,43,20,30.61,30.40,17,5,17,0.00
2013-4-23,66,47,33,35,27,17,69,48,26,30.41,30.05,20,6,20,0.00
2013-4-24,70,52,38,49,40,32,78,64,43,30.05,29.70,28,7,28,0.14
2013-4-25,61,44,34,32,27,23,78,55,28,30.31,29.98,15,3,15,0.04
2013-4-26,61,43,33,35,29,25,81,59,30,30.47,30.31,9,2,9,0.06
2013-4-27,70,50,32,33,28,24,72,48,23,30.45,30.27,9,2,9,0.00
2013-4-28,74,58,43,39,32,29,69,41,22,30.28,30.08,21,5,21,0.02
2013-4-29,64,53,47,49,41,36,78,66,55,30.15,30.07,26,7,26,0.09
2013-4-30,71,58,50,50,46,41,77,63,46,30.28,30.13,16,5,16,0.00
2013-5-1,81,62,47,42,34,28,67,40,18,30.41,30.27,15,3,15,0.00
2013-5-2,82,63,48,39,33,25,58,35,18,30.46,30.30,16,3,16,0.00
2013-5-3,80,62,48,43,38,26,65,43,23,30.38,30.26,15,4,15,0.00
2013-5-4,79,60,43,40,33,26,58,38,19,30.33,30.17,12,2,12,0.02
2013-5-5,81,63,49,43,35,22,59,38,15,30.25,30.11,12,3,12,0.00
2013-5-6,80,61,46,40,31,22,54,34,14,30.22,30.07,13,3,13,0.00
2013-5-7,81,65,50,51,44,38,74,50,25,30.17,30.04,10,2,10,0.00
2013-5-8,69,61,54,56,50,43,82,67,54,30.11,29.96,12,3,12,0.06
2013-5-9,73,59,50,54,48,44,82,68,42,29.99,29.92,12,2,12,0.02
2013-5-10,75,61,49,58,50,44,86,68,43,30.01,29.80,18,3,18,0.22
2013-5-11,67,57,47,54,49,40,84,73,53,29.80,29.72,17,3,17,0.10
2013-5-12,56,47,37,42,32,22,80,59,35,29.92,29.73,21,3,21,0.02
2013-5-13,50,40,34,31,26,24,69,58,44,30.13,29.92,14,3,14,0.00
2013-5-14,60,43,30,32,26,22,79,54,27,30.17,30.02,12,1,12,0.00
2013-5-15,77,55,38,54,38,24,77,53,39,30.02,29.59,23,5,23,0.05
2013-5-16,76,60,47,43,38,29,62,45,26,29.99,29.77,20,2,20,0.00
2013-5-17,66,51,36,41,34,29,77,55,30,30.26,29.99,8,1,9,0.00
2013-5-18,72,57,41,48,40,33,76,56,33,30.30,30.20,13,2,13,0.00
2013-5-19,70,60,53,55,50,43,77,69,57,30.23,30.10,17,5,17,0.00
2013-5-20,84,70,58,63,56,51,79,64,45,30.11,29.93,17,2,17,0.00
2013-5-21,87,72,62,67,60,54,84,68,49,29.97,29.80,14,1,14,0.38
2013-5-22,84,71,61,67,60,55,85,70,48,29.88,29.74,12,2,17,0.04
2013-5-23,78,66,53,62,56,47,82,70,53,29.84,29.77,16,2,16,0.19
2013-5-24,52,40,38,47,36,33,85,83,78,30.14,29.81,12,2,12,0.28
2013-5-25,54,45,38,38,34,31,84,65,46,30.15,30.10,18,3,18,0.00
2013-5-26,59,48,38,38,33,30,77,58,37,30.21,30.06,14,2,14,0.02
2013-5-27,67,54,42,40,34,30,63,49,30,30.28,30.17,8,1,8,0.00
2013-5-28,60,55,48,51,42,30,84,63,45,30.21,30.03,16,3,16,0.64
2013-5-29,84,67,54,66,59,49,92,77,49,30.08,29.96,12,2,13,0.53
2013-5-30,86,72,61,71,64,59,93,77,58,30.18,30.08,7,1,7,0.00
2013-5-31,88,76,64,70,64,60,87,67,48,30.15,29.98,8,1,8,0.00
2013-6-1,87,75,62,70,64,59,90,71,53,30.02,29.82,14,2,14,0.00
2013-6-2,80,71,61,68,62,54,87,75,59,29.84,29.73,14,2,14,0.00
2013-6-3,66,54,46,55,46,37,85,73,57,29.99,29.84,9,1,9,0.00
2013-6-4,65,53,43,43,37,32,79,58,34,30.15,29.98,12,1,12,0.00
2013-6-5,72,58,46,49,41,35,68,54,37,30.20,30.07,5,0,5,0.00
2013-6-6,58,54,52,51,46,40,86,76,59,30.09,29.86,16,3,16,1.36
2013-6-7,66,59,55,58,54,50,86,81,72,29.87,29.78,16,3,16,0.08
2013-6-8,63,57,53,56,52,49,87,84,79,30.07,29.76,6,0,6,0.09
2013-6-9,75,62,50,56,52,46,87,70,49,30.19,30.07,7,0,7,0.00
2013-6-10,66,62,56,58,54,49,85,75,63,30.15,29.75,17,4,17,0.14
2013-6-11,64,60,56,59,56,50,87,84,80,29.80,29.65,12,2,12,0.24
2013-6-12,72,60,53,55,51,48,85,71,51,29.92,29.79,7,1,7,0.00
2013-6-13,59,56,53,53,51,49,85,82,72,29.81,29.55,18,2,18,0.80
2013-6-14,70,59,51,58,52,47,87,77,60,29.94,29.74,10,1,10,0.00
2013-6-15,73,60,50,55,49,44,87,67,42,30.04,29.94,9,1,9,0.00
2013-6-16,70,63,55,62,54,47,83,72,56,29.97,29.72,13,1,13,0.02
2013-6-17,80,65,56,64,57,51,85,74,51,29.93,29.84,10,1,10,0.02
2013-6-18,70,60,51,57,51,44,86,73,54,30.00,29.89,6,1,6,0.02
2013-6-19,67,55,44,50,41,37,84,62,40,30.18,30.00,8,0,8,0.00
2013-6-20,76,60,44,53,46,37,79,61,42,30.25,30.18,6,0,6,0.00
2013-6-21,80,66,50,57,50,43,75,58,40,30.27,30.18,6,0,6,0.00
2013-6-22,86,74,63,65,59,51,76,61,41,30.18,30.03,9,2,9,0.00
2013-6-23,91,74,66,70,63,59,83,71,47,30.10,30.01,14,2,14,0.35
2013-6-24,89,76,67,71,64,58,81,67,46,30.06,29.96,9,1,9,0.00
2013-6-25,85,73,65,69,63,58,79,70,56,29.98,29.81,11,1,11,0.06
2013-6-26,84,71,64,68,62,58,81,72,56,29.85,29.80,8,1,8,0.00
2013-6-27,85,70,61,68,62,56,86,75,54,29.83,29.62,12,1,12,0.35
2013-6-28,75,66,60,65,60,55,88,82,67,29.62,29.49,6,0,6,0.40
2013-6-29,77,65,59,65,59,55,87,81,64,29.71,29.51,10,0,10,0.23
2013-6-30,82,69,59,68,60,55,88,75,59,29.93,29.71,9,0,9,0.16
2013-7-1,71,66,61,65,61,57,87,85,80,30.01,29.90,4,0,4,0.53
2013-7-2,85,73,64,73,66,60,88,78,63,30.10,30.00,9,1,9,0.06
2013-7-3,88,76,68,71,66,62,84,73,56,30.17,30.09,8,2,8,0.00
2013-7-4,88,77,71,73,68,64,83,73,60,30.19,30.11,12,1,12,0.00
2013-7-5,91,78,70,74,69,66,86,75,54,30.16,30.06,6,1,11,0.70
2013-7-6,85,76,68,71,66,63,88,74,52,30.16,30.04,6,0,6,0.00
2013-7-7,88,78,69,75,69,64,87,75,57,30.07,29.93,6,0,6,0.79
2013-7-8,86,75,68,71,66,62,86,75,58,30.07,29.98,0,0,0,0.02
2013-7-9,90,76,68,74,68,63,85,75,54,30.06,29.94,7,0,7,0.08
2013-7-10,86,76,70,73,68,62,86,77,64,29.95,29.76,10,1,10,0.02
2013-7-11,79,70,61,64,60,55,81,70,56,30.02,29.82,6,0,6,0.00
2013-7-12,81,69,59,65,59,55,86,71,48,30.17,30.01,4,0,5,0.00
2013-7-13,82,72,62,70,64,56,85,75,62,30.27,30.15,5,0,10,0.00
2013-7-14,90,78,68,72,68,63,86,73,55,30.33,30.24,7,0,7,0.00
2013-7-15,90,79,69,73,68,62,85,72,55,30.30,30.22,6,0,6,0.00
2013-7-16,90,77,67,72,66,61,82,69,49,30.29,30.21,3,0,3,0.00
2013-7-17,92,79,68,76,70,62,85,74,54,30.24,30.08,6,0,6,0.04
2013-7-18,92,79,72,77,71,66,87,76,58,30.11,29.97,6,0,6,0.09
2013-7-19,92,81,69,75,69,61,81,67,49,29.98,29.76,21,1,21,0.04
2013-7-20,80,70,63,68,63,57,87,80,64,29.89,29.73,11,1,11,0.55
2013-7-21,80,70,61,66,60,56,87,71,51,30.00,29.89,6,0,6,0.00
2013-7-22,88,72,60,72,63,55,85,75,54,30.01,29.81,10,0,10,0.04
2013-7-23,83,73,65,70,65,61,87,76,61,29.81,29.63,8,0,8,0.55
2013-7-24,71,62,51,63,53,45,81,72,59,30.04,29.67,5,0,5,0.02
2013-7-25,74,61,49,55,50,44,87,69,47,30.11,30.03,2,0,2,0.00
2013-7-26,78,64,52,61,54,48,86,71,50,30.10,30.02,2,0,2,0.00
2013-7-27,84,70,59,66,60,53,86,71,51,30.03,29.88,13,1,13,0.12
2013-7-28,78,68,58,67,62,54,87,81,64,29.99,29.85,15,2,15,0.84
2013-7-29,76,63,55,60,55,51,88,75,54,30.13,29.98,6,0,8,0.02
2013-7-30,79,66,58,63,57,52,84,74,55,30.19,30.12,3,0,5,0.00
2013-7-31,81,68,56,64,57,52,88,71,50,30.16,29.97,0,0,0,0.00
2013-8-1,80,67,60,68,60,56,85,78,64,29.97,29.79,12,2,12,0.22
2013-8-2,81,67,59,64,58,55,88,75,52,29.91,29.84,6,0,6,0.00
2013-8-3,78,67,60,63,57,51,85,70,49,29.92,29.81,20,1,20,0.10
2013-8-4,74,63,57,60,54,49,86,74,55,30.02,29.91,9,1,9,0.11
2013-8-5,76,61,50,57,50,44,85,69,46,30.10,30.01,4,0,6,0.00
2013-8-6,80,66,54,60,54,48,81,65,46,30.08,30.03,9,1,9,0.00
2013-8-7,78,69,62,66,61,55,81,74,64,30.06,29.94,15,3,15,0.00
2013-8-8,87,74,66,71,66,60,84,75,57,29.99,29.93,13,1,13,0.00
2013-8-9,78,71,63,71,66,59,87,83,75,29.94,29.85,8,0,8,0.26
2013-8-10,74,65,53,61,55,47,86,73,56,30.09,29.93,8,1,8,0.02
2013-8-11,77,63,52,58,52,47,83,70,48,30.12,30.04,6,0,6,0.00
2013-8-12,79,67,58,62,57,51,81,70,52,30.06,29.88,7,0,7,0.00
2013-8-13,78,66,57,66,59,49,87,77,63,29.89,29.74,10,1,10,1.02
2013-8-14,68,58,52,56,50,46,84,74,61,30.06,29.81,15,2,15,0.00
2013-8-15,74,61,52,57,51,46,84,70,51,30.14,30.05,8,1,8,0.00
2013-8-16,76,62,53,58,52,47,84,69,48,30.21,30.11,8,0,8,0.00
2013-8-17,80,65,54,60,54,48,83,69,48,30.30,30.21,6,0,6,0.00
2013-8-18,81,69,59,64,57,52,81,68,50,30.26,30.12,6,0,6,0.00
2013-8-19,81,69,60,64,58,54,82,70,52,30.12,30.03,6,0,6,0.00
2013-8-20,82,69,59,65,59,54,85,71,51,30.14,30.06,6,0,6,0.00
2013-8-21,84,72,61,66,60,55,83,69,49,30.18,30.04,6,0,6,0.00
2013-8-22,87,71,63,69,62,57,86,74,54,30.05,29.88,9,0,9,0.08
2013-8-23,76,64,55,62,56,50,87,75,54,30.19,29.96,6,0,6,0.00
2013-8-24,74,62,52,59,52,48,88,71,46,30.35,30.19,0,0,0,0.02
2013-8-25,83,68,52,62,55,47,84,65,44,30.35,30.14,6,0,6,0.00
2013-8-26,77,70,65,68,62,56,87,76,62,30.18,29.93,7,0,7,1.33
2013-8-27,84,72,63,71,66,59,88,80,63,29.96,29.89,0,0,0,0.00
2013-8-28,85,73,66,74,67,62,88,81,66,29.94,29.86,5,0,5,0.04
2013-8-29,83,71,62,71,64,58,89,79,61,30.04,29.93,0,0,0,0.00
2013-8-30,85,72,61,68,62,57,89,74,52,30.03,29.80,0,0,0,0.00
2013-8-31,84,74,68,72,67,62,87,78,66,29.87,29.75,6,0,6,0.04
2013-9-1,85,74,66,70,66,61,87,77,59,29.87,29.76,6,0,6,0.41
2013-9-2,84,71,66,73,65,61,88,82,66,29.82,29.67,7,0,7,0.57
2013-9-3,71,64,60,61,56,54,85,77,64,29.92,29.78,0,0,0,0.00
2013-9-4,76,66,53,60,55,49,86,70,54,29.99,29.91,8,0,8,0.00
2013-9-5,70,59,47,58,47,39,83,66,47,30.19,29.94,7,0,7,0.02
2013-9-6,66,54,44,48,44,39,84,68,48,30.27,30.10,0,0,0,0.00
2013-9-7,72,60,52,57,51,44,84,71,54,30.10,29.88,0,0,0,0.29
2013-9-8,65,58,46,58,49,41,87,73,50,30.11,29.84,6,1,9,0.14
2013-9-9,73,59,45,56,48,40,82,67,48,30.17,30.01,12,1,12,0.00
2013-9-10,85,74,64,73,65,54,87,76,66,30.10,29.97,17,2,17,0.71
2013-9-11,90,78,68,75,69,62,85,76,56,30.08,29.93,14,2,14,0.37
2013-9-12,81,69,62,70,63,58,86,82,67,29.93,29.73,7,1,8,0.28
2013-9-13,62,55,48,58,51,44,87,85,77,29.96,29.71,6,1,9,0.98
2013-9-14,59,50,44,50,45,40,88,81,69,30.12,29.95,8,1,8,0.02
2013-9-15,69,55,44,56,47,40,87,75,51,30.16,30.05,9,0,9,0.02
2013-9-16,58,52,42,52,46,36,86,81,71,30.34,30.06,8,1,8,0.04
2013-9-17,62,49,37,47,40,33,87,74,55,30.45,30.29,5,0,5,0.00
2013-9-18,70,57,46,51,45,40,83,65,46,30.30,30.12,8,1,8,0.00
2013-9-19,74,61,50,57,50,43,76,65,50,30.14,30.03,5,0,5,0.00
2013-9-20,77,66,57,62,56,48,82,69,55,30.04,29.86,8,2,14,0.00
2013-9-21,72,63,57,61,56,53,87,78,65,29.86,29.63,14,3,19,1.27
2013-9-22,58,52,48,54,45,41,87,78,64,29.98,29.68,10,1,10,0.04
2013-9-23,58,48,41,44,40,36,82,73,57,30.10,29.98,6,1,8,0.00
2013-9-24,61,49,40,48,41,35,86,75,55,30.10,29.98,4,0,9,0.00
2013-9-25,66,53,44,53,45,39,87,75,54,30.00,29.93,6,0,6,0.00
2013-9-26,69,55,44,55,47,40,87,75,57,30.12,29.98,7,0,7,0.00
2013-9-27,71,55,46,57,48,41,87,77,58,30.25,30.12,2,0,5,0.00
2013-9-28,71,58,48,58,49,43,85,74,57,30.30,30.19,9,1,9,0.00
2013-9-29,71,59,49,54,48,44,82,69,52,30.20,30.04,6,1,10,0.00
2013-9-30,73,62,52,58,51,45,78,68,51,30.04,29.96,9,0,9,0.00
2013-10-1,73,62,54,60,54,48,85,76,61,30.03,29.93,5,0,5,0.00
2013-10-2,75,63,54,63,55,47,83,74,59,30.06,29.93,6,0,9,0.00
2013-10-3,72,59,49,54,50,45,87,72,47,30.14,30.02,3,0,4,0.00
2013-10-4,76,66,60,67,59,51,87,79,71,30.05,29.99,6,0,6,0.75
2013-10-5,69,63,61,63,59,57,88,86,80,30.09,30.02,0,0,0,0.21
2013-10-6,80,68,61,70,63,57,89,83,68,30.03,29.85,24,3,24,0.22
2013-10-7,73,61,51,64,54,42,86,78,68,30.00,29.65,28,3,28,0.63
2013-10-8,63,52,44,51,44,39,85,74,58,30.34,30.00,8,0,8,0.00
2013-10-9,66,52,42,47,42,37,85,71,45,30.40,30.28,8,0,8,0.00
2013-10-10,66,53,42,49,43,36,82,70,52,30.29,30.14,9,0,9,0.00
2013-10-11,70,55,48,56,46,42,83,72,47,30.14,30.09,4,0,4,0.03
2013-10-12,74,57,43,50,44,37,81,63,35,30.23,30.11,11,0,11,0.00
2013-10-13,72,61,52,55,50,46,79,66,52,30.30,30.23,17,3,17,0.00
2013-10-14,62,56,50,52,49,46,85,78,58,30.31,30.26,13,0,13,0.06
2013-10-15,69,58,48,56,50,44,87,77,60,30.27,30.01,13,1,13,0.00
2013-10-16,65,59,56,52,49,43,84,69,57,30.01,29.80,21,4,21,0.08
2013-10-17,66,56,49,52,48,44,85,75,56,29.88,29.65,8,1,8,0.73
2013-10-18,58,52,45,48,43,38,86,73,52,29.92,29.67,8,2,16,0.10
2013-10-19,65,54,45,47,42,38,83,65,46,29.91,29.66,25,3,25,0.11
2013-10-20,56,47,41,41,38,34,80,71,55,29.99,29.72,16,2,16,0.00
2013-10-21,66,55,43,42,38,35,77,55,38,30.01,29.81,20,4,20,0.00
2013-10-22,54,48,40,40,35,30,76,63,50,29.83,29.74,16,1,16,0.02
2013-10-23,52,42,36,37,33,29,83,69,51,29.80,29.64,10,0,10,0.04
2013-10-24,49,40,33,35,31,27,84,71,50,29.95,29.75,16,3,16,0.02
2013-10-25,49,41,36,37,34,30,82,76,61,30.13,29.94,10,2,12,0.02
2013-10-26,46,42,39,33,30,26,76,64,47,30.11,29.80,16,4,29,0.00
2013-10-27,51,43,38,37,32,29,79,66,50,30.05,29.79,15,2,15,0.00
2013-10-28,53,42,29,38,30,21,75,64,49,30.34,30.02,15,2,15,0.00
2013-10-29,44,34,25,27,22,19,79,61,41,30.43,30.26,6,0,6,0.00
2013-10-30,56,45,38,42,34,24,79,66,51,30.26,30.11,11,1,11,0.02
2013-10-31,58,53,46,54,48,37,86,82,68,30.12,29.52,27,6,27,0.39
2013-11-1,66,58,50,56,47,38,86,68,42,29.68,29.29,30,6,30,0.34
2013-11-2,57,47,35,46,39,30,83,75,59,29.91,29.62,9,2,12,0.08
2013-11-3,38,32,24,30,22,16,83,68,54,30.48,29.91,11,3,11,0.00
2013-11-4,43,32,23,24,19,16,78,59,39,30.60,30.45,10,1,18,0.00
2013-11-5,55,44,34,35,28,17,65,53,46,30.49,30.37,23,5,23,0.00
2013-11-6,61,53,45,47,42,35,76,67,55,30.40,29.89,28,6,28,0.00
2013-11-7,57,44,35,48,38,28,85,78,68,29.98,29.83,11,3,17,0.47
2013-11-8,40,36,33,34,28,26,82,74,66,30.22,29.95,15,4,15,0.06
2013-11-9,47,41,35,33,29,26,74,62,50,30.23,29.85,19,4,19,0.00
2013-11-10,50,42,34,36,33,30,84,70,55,30.13,29.81,20,4,20,0.19
2013-11-11,44,38,31,33,30,26,84,74,59,30.17,29.96,18,4,18,0.04
2013-11-12,32,28,24,26,21,18,82,76,63,30.34,30.06,14,4,14,0.00
2013-11-13,36,28,17,24,18,11,80,69,57,30.41,30.13,20,3,20,0.08
2013-11-14,60,39,30,24,18,10,58,43,24,30.79,30.07,17,4,17,0.00
2013-11-15,53,42,33,22,16,12,44,35,27,30.17,30.09,18,2,18,0.00
2013-11-16,57,46,34,38,27,16,70,49,34,30.29,30.14,20,3,20,0.00
2013-11-17,57,53,47,52,47,38,87,82,70,30.15,29.49,31,8,31,0.10
2013-11-18,57,48,36,53,38,26,89,69,49,29.87,29.46,29,5,29,0.12
2013-11-19,36,33,28,29,26,20,85,75,69,30.41,29.86,17,5,17,0.00
2013-11-20,40,28,18,24,18,13,83,66,44,30.58,30.41,10,1,10,0.02
2013-11-21,46,37,28,34,24,13,78,61,50,30.53,30.29,20,5,20,0.00
2013-11-22,59,42,35,43,39,32,90,87,52,30.30,29.98,12,2,17,0.21
2013-11-23,38,30,19,32,25,14,88,82,65,30.14,29.94,20,5,20,0.00
2013-11-24,29,20,16,23,16,13,92,86,71,30.36,30.08,16,6,16,0.00
2013-11-25,35,26,17,28,20,15,92,80,64,30.39,30.16,23,4,23,0.08
2013-11-26,38,33,29,34,29,21,96,87,67,30.23,29.83,12,3,16,0.00
2013-11-27,35,31,22,34,30,20,98,96,92,29.84,29.57,13,1,13,0.02
2013-11-28,30,23,20,23,19,15,94,87,76,30.43,29.84,10,2,10,0.00
2013-11-29,32,21,10,25,18,8,93,86,71,30.73,30.43,10,0,10,0.00
2013-11-30,32,22,8,24,17,6,93,80,65,30.73,30.26,22,5,22,0.00
2013-12-1,42,34,28,34,29,24,94,82,71,30.27,30.01,18,2,18,0.00
2013-12-2,43,36,34,38,34,32,95,90,80,30.02,29.90,6,1,9,0.08
2013-12-3,42,34,26,36,31,24,95,89,77,30.05,29.92,4,0,4,0.02
2013-12-4,49,40,28,43,37,27,96,90,79,30.11,30.01,26,3,26,0.02
2013-12-5,56,50,40,54,48,39,97,93,84,30.03,29.86,40,6,40,0.04
2013-12-6,40,33,29,39,32,28,97,93,87,30.25,30.01,9,2,9,0.39
2013-12-7,34,28,25,28,24,18,94,83,74,30.53,30.22,8,3,13,0.00
2013-12-8,31,25,19,23,20,15,88,78,71,30.58,30.29,14,2,14,0.00
2013-12-9,41,34,25,38,31,22,95,89,81,30.29,29.90,31,7,31,0.04
2013-12-10,33,27,20,28,22,14,89,81,77,30.07,29.91,17,4,17,0.00
2013-12-11,29,22,15,24,18,11,91,84,79,30.24,30.06,15,3,15,0.00
2013-12-12,22,17,13,16,13,11,91,83,73,30.31,30.04,19,3,19,0.00
2013-12-13,25,19,12,22,15,9,89,86,81,30.38,30.02,11,4,19,0.00
2013-12-14,25,17,9,23,13,4,94,86,79,30.45,29.80,30,5,30,0.00
2013-12-15,28,24,19,25,22,14,95,92,82,29.84,29.63,20,2,22,0.00
2013-12-16,24,15,2,19,11,-1,90,86,80,30.20,29.84,13,3,23,0.00
2013-12-17,27,18,3,24,16,0,92,91,88,30.18,29.94,23,4,23,0.00
2013-12-18,34,27,20,28,24,18,94,88,77,30.10,29.95,13,3,13,0.00
2013-12-19,42,34,26,33,28,21,87,78,68,30.10,29.97,46,4,46,0.12
2013-12-20,47,43,37,46,39,33,98,88,72,30.05,29.86,16,5,18,0.14
2013-12-21,54,49,36,53,48,36,99,97,93,29.90,29.82,22,4,22,0.68
2013-12-22,62,46,34,58,45,34,100,94,78,30.02,29.60,27,3,27,0.06
2013-12-23,42,36,28,40,35,26,98,94,84,30.25,30.00,13,2,13,0.08
2013-12-24,32,21,13,27,19,10,95,90,83,30.43,30.18,12,2,12,0.00
2013-12-25,23,16,1,17,11,-1,91,83,74,30.52,30.26,10,2,15,0.00
2013-12-26,34,26,21,28,22,17,92,86,77,30.27,30.09,18,3,18,0.00
2013-12-27,33,27,21,29,24,17,93,87,82,30.29,30.17,14,1,14,0.00
2013-12-28,45,37,29,37,32,27,91,82,73,30.17,30.00,15,3,49,0.06
2013-12-29,44,38,34,38,34,32,97,85,69,30.02,29.68,16,2,16,0.41
2013-12-30,36,20,12,35,17,8,96,86,77,30.21,29.74,15,4,15,0.00
2013-12-31,26,18,14,21,13,8,88,83,75,30.24,29.97,17,3,17,0.00
2014-1-1,26,17,13,17,12,9,88,79,66,30.38,30.23,6,1,11,0.00
2014-1-2,15,11,1,11,7,-3,88,86,82,30.29,29.91,5,0,5,0.00